Date,TemperatureHighF,TemperatureAvgF,TemperatureLowF,DewpointHighF,DewpointAvgF,DewpointLowF,HumidityHigh,HumidityAvg,HumidityLow,PressureMaxIn,PressureMinIn,WindSpeedMaxMPH,WindSpeedAvgMPH,GustSpeedMaxMPH,PrecipitationSumIn
2013-6-1,73.0,58.2,51.1,65.4,56.4,50.8,100,94,75,29.69,29.58,11,3,12,0.00
2013-6-2,56.6,47.6,40.1,51.4,42.1,39.2,100,82,56,30.04,29.63,14,7,19,0.00
2013-6-3,62.7,48.9,36.8,49.1,43.2,36.7,100,83,46,30.12,30.00,9,3,11,0.00
2013-6-4,55.4,48.9,43.5,46.5,40.6,33.3,100,76,45,30.23,30.12,8,2,8,0.01
2013-6-5,55.7,50.3,45.1,49.6,46.5,39.0,100,87,78,30.19,30.02,9,4,11,0.00
2013-6-6,59.3,52.9,49.1,48.2,44.7,41.3,89,74,60,30.02,29.95,8,5,12,0.01
2013-6-7,70.9,59.1,47.4,47.6,43.5,37.9,93,59,33,29.99,29.90,9,4,13,0.00
2013-6-8,69.9,57.2,44.9,55.8,47.0,42.2,99,73,37,30.03,29.90,6,1,9,0.01
2013-6-9,69.1,58.1,43.6,58.4,52.1,43.6,100,82,66,30.04,29.87,8,4,13,0.00
2013-6-10,72.0,63.1,55.9,61.2,56.7,52.7,99,80,66,29.87,29.77,7,2,11,0.00
2013-6-11,80.1,64.5,51.3,64.7,57.9,51.3,100,81,54,29.87,29.75,7,2,12,0.00
2013-6-12,73.0,63.8,54.5,61.5,54.7,46.8,100,75,41,29.88,29.69,7,3,9,0.01
2013-6-13,70.6,63.5,58.1,55.3,52.2,48.4,81,67,53,30.06,29.73,13,8,22,0.00
2013-6-14,65.6,58.2,47.4,53.1,44.6,34.7,92,62,35,30.14,29.99,7,2,8,0.00
2013-6-15,64.7,58.0,52.9,60.2,50.6,38.0,100,78,48,30.00,29.74,7,2,11,0.63
2013-6-16,81.6,69.5,59.8,64.0,58.5,50.9,100,73,35,29.88,29.74,10,6,22,0.05
2013-6-17,63.9,59.5,52.0,59.5,54.9,47.8,100,85,71,30.02,29.81,12,5,14,0.04
2013-6-18,66.6,57.1,46.4,50.3,44.0,32.0,90,65,28,30.11,30.02,10,4,12,0.00
2013-6-19,67.4,57.5,42.8,49.0,44.3,39.6,99,64,43,30.15,30.06,13,6,16,0.00
2013-6-20,74.4,66.4,52.6,58.7,50.8,40.6,68,57,49,30.11,30.05,13,6,20,0.00
2013-6-21,78.3,67.5,57.5,69.1,60.2,52.3,100,78,57,30.07,29.85,19,6,25,0.45
2013-6-22,71.3,62.9,56.5,65.8,61.1,56.5,100,94,79,30.05,29.90,11,2,16,0.00
2013-6-23,75.6,64.7,56.5,68.3,62.2,56.5,100,92,75,30.00,29.81,13,4,21,0.10
2013-6-24,82.4,72.1,62.0,72.5,67.2,60.8,100,85,67,29.92,29.79,10,2,12,0.00
2013-6-25,78.1,70.6,59.3,70.3,67.2,59.3,100,90,71,29.83,29.76,9,4,14,1.07
2013-6-26,74.6,66.0,58.9,68.7,62.9,58.9,100,90,73,29.78,29.68,12,3,17,0.00
2013-6-27,74.9,66.2,60.4,69.0,64.0,60.4,100,93,79,29.75,29.63,6,2,7,0.14
2013-6-28,72.3,65.8,59.3,66.2,63.0,59.3,100,91,77,29.63,29.57,7,3,10,0.02
2013-6-29,72.0,65.4,60.1,61.5,57.8,49.5,97,77,60,29.83,29.61,13,7,17,0.00
2013-6-30,76.0,65.9,55.9,54.8,49.9,40.2,88,59,29,30.03,29.83,11,4,14,0.00